sensor_id;sensor_type;location;lat;lon;timestamp;pressure;altitude;pressure_sealevel;temperature;humidity
66801;BME280;53703;50.326;19.122;2023-02-28T00:02:55;99883.22;;;17.49;39.60
66801;BME280;53703;50.326;19.122;2023-02-28T00:05:49;99886.00;;;17.48;39.67
66801;BME280;53703;50.326;19.122;2023-02-28T00:08:43;99888.05;;;17.48;39.73
66801;BME280;53703;50.326;19.122;2023-02-28T00:11:37;99886.07;;;17.48;39.45
66801;BME280;53703;50.326;19.122;2023-02-28T00:14:32;99881.45;;;17.47;39.55
66801;BME280;53703;50.326;19.122;2023-02-28T00:17:26;99885.28;;;17.48;39.67
66801;BME280;53703;50.326;19.122;2023-02-28T00:20:21;99884.70;;;17.47;39.44
66801;BME280;53703;50.326;19.122;2023-02-28T00:23:15;99886.45;;;17.48;39.51
66801;BME280;53703;50.326;19.122;2023-02-28T00:26:09;99885.32;;;17.47;39.64
66801;BME280;53703;50.326;19.122;2023-02-28T00:29:02;99885.84;;;17.48;39.44
66801;BME280;53703;50.326;19.122;2023-02-28T00:31:56;99891.43;;;17.48;39.51
66801;BME280;53703;50.326;19.122;2023-02-28T00:34:50;99890.13;;;17.47;39.51
66801;BME280;53703;50.326;19.122;2023-02-28T00:37:44;99887.53;;;17.49;39.49
66801;BME280;53703;50.326;19.122;2023-02-28T00:40:38;99883.44;;;17.47;39.30
66801;BME280;53703;50.326;19.122;2023-02-28T00:43:32;99883.43;;;17.48;39.45
66801;BME280;53703;50.326;19.122;2023-02-28T00:46:26;99885.48;;;17.47;39.26
66801;BME280;53703;50.326;19.122;2023-02-28T00:49:20;99882.76;;;17.48;39.18
66801;BME280;53703;50.326;19.122;2023-02-28T00:51:55;99888.54;;;17.48;39.42
66801;BME280;53703;50.326;19.122;2023-02-28T00:54:49;99893.95;;;17.48;39.50
66801;BME280;53703;50.326;19.122;2023-02-28T00:57:42;99899.60;;;17.49;39.27
66801;BME280;53703;50.326;19.122;2023-02-28T01:00:36;99895.27;;;17.49;39.41
66801;BME280;53703;50.326;19.122;2023-02-28T01:03:30;99889.84;;;17.48;39.25
66801;BME280;53703;50.326;19.122;2023-02-28T01:06:25;99893.30;;;17.48;39.24
66801;BME280;53703;50.326;19.122;2023-02-28T01:09:19;99895.69;;;17.50;39.35
66801;BME280;53703;50.326;19.122;2023-02-28T01:12:13;99894.02;;;17.48;39.29
66801;BME280;53703;50.326;19.122;2023-02-28T01:15:11;99897.78;;;17.47;39.16
66801;BME280;53703;50.326;19.122;2023-02-28T01:18:05;99895.72;;;17.50;39.03
66801;BME280;53703;50.326;19.122;2023-02-28T01:21:02;99900.09;;;17.46;39.17
66801;BME280;53703;50.326;19.122;2023-02-28T01:23:57;99891.59;;;17.48;39.19
66801;BME280;53703;50.326;19.122;2023-02-28T01:26:52;99888.43;;;17.46;39.16
66801;BME280;53703;50.326;19.122;2023-02-28T01:29:46;99888.17;;;17.46;39.20
66801;BME280;53703;50.326;19.122;2023-02-28T01:32:40;99890.62;;;17.49;39.08
66801;BME280;53703;50.326;19.122;2023-02-28T01:35:37;99890.68;;;17.49;39.04
66801;BME280;53703;50.326;19.122;2023-02-28T01:38:30;99887.48;;;17.49;39.08
66801;BME280;53703;50.326;19.122;2023-02-28T01:41:27;99889.38;;;17.46;38.98
66801;BME280;53703;50.326;19.122;2023-02-28T01:45:06;99888.17;;;17.48;39.11
66801;BME280;53703;50.326;19.122;2023-02-28T01:48:09;99885.29;;;17.46;38.99
66801;BME280;53703;50.326;19.122;2023-02-28T01:51:09;99887.17;;;17.46;39.03
66801;BME280;53703;50.326;19.122;2023-02-28T01:54:07;99886.58;;;17.46;39.04
66801;BME280;53703;50.326;19.122;2023-02-28T01:57:11;99883.27;;;17.46;38.98
66801;BME280;53703;50.326;19.122;2023-02-28T02:00:11;99881.86;;;17.44;38.99
66801;BME280;53703;50.326;19.122;2023-02-28T02:03:10;99881.25;;;17.45;38.87
66801;BME280;53703;50.326;19.122;2023-02-28T02:06:05;99877.06;;;17.46;39.03
66801;BME280;53703;50.326;19.122;2023-02-28T02:08:58;99873.92;;;17.46;39.10
66801;BME280;53703;50.326;19.122;2023-02-28T02:11:52;99870.80;;;17.47;39.08
66801;BME280;53703;50.326;19.122;2023-02-28T02:15:00;99874.98;;;17.46;39.07
66801;BME280;53703;50.326;19.122;2023-02-28T02:18:04;99872.66;;;17.43;39.10
66801;BME280;53703;50.326;19.122;2023-02-28T02:21:40;99871.27;;;17.44;39.07
66801;BME280;53703;50.326;19.122;2023-02-28T02:25:04;99874.10;;;17.44;39.07
66801;BME280;53703;50.326;19.122;2023-02-28T02:29:00;99873.73;;;17.41;39.04
66801;BME280;53703;50.326;19.122;2023-02-28T02:32:16;99869.35;;;17.44;38.92
66801;BME280;53703;50.326;19.122;2023-02-28T02:35:18;99866.52;;;17.44;38.87
66801;BME280;53703;50.326;19.122;2023-02-28T02:38:22;99865.72;;;17.43;38.76
66801;BME280;53703;50.326;19.122;2023-02-28T02:41:33;99864.84;;;17.39;39.01
66801;BME280;53703;50.326;19.122;2023-02-28T02:44:33;99863.16;;;17.39;39.03
66801;BME280;53703;50.326;19.122;2023-02-28T02:47:33;99860.83;;;17.38;38.95
66801;BME280;53703;50.326;19.122;2023-02-28T02:50:34;99859.83;;;17.39;38.94
66801;BME280;53703;50.326;19.122;2023-02-28T02:53:32;99861.56;;;17.36;38.99
66801;BME280;53703;50.326;19.122;2023-02-28T02:56:28;99859.23;;;17.36;39.04
66801;BME280;53703;50.326;19.122;2023-02-28T02:59:25;99863.67;;;17.37;38.88
66801;BME280;53703;50.326;19.122;2023-02-28T03:02:22;99868.02;;;17.36;38.89
66801;BME280;53703;50.326;19.122;2023-02-28T03:05:21;99869.29;;;17.36;38.81
66801;BME280;53703;50.326;19.122;2023-02-28T03:08:18;99866.55;;;17.35;38.92
66801;BME280;53703;50.326;19.122;2023-02-28T03:10:58;99866.75;;;17.36;38.83
66801;BME280;53703;50.326;19.122;2023-02-28T03:14:35;99865.31;;;17.35;38.88
66801;BME280;53703;50.326;19.122;2023-02-28T03:17:52;99860.66;;;17.34;38.72
66801;BME280;53703;50.326;19.122;2023-02-28T03:20:56;99864.63;;;17.34;38.93
66801;BME280;53703;50.326;19.122;2023-02-28T03:24:03;99864.95;;;17.34;38.90
66801;BME280;53703;50.326;19.122;2023-02-28T03:27:06;99870.23;;;17.33;38.89
66801;BME280;53703;50.326;19.122;2023-02-28T03:30:06;99875.34;;;17.34;38.80
66801;BME280;53703;50.326;19.122;2023-02-28T03:33:10;99876.77;;;17.34;38.81
66801;BME280;53703;50.326;19.122;2023-02-28T03:36:12;99881.53;;;17.33;38.71
66801;BME280;53703;50.326;19.122;2023-02-28T03:39:11;99876.54;;;17.35;38.74
66801;BME280;53703;50.326;19.122;2023-02-28T03:42:11;99886.72;;;17.32;38.77
66801;BME280;53703;50.326;19.122;2023-02-28T03:45:11;99889.00;;;17.33;38.73
66801;BME280;53703;50.326;19.122;2023-02-28T03:48:11;99890.33;;;17.33;38.76
66801;BME280;53703;50.326;19.122;2023-02-28T03:51:09;99891.05;;;17.30;38.89
66801;BME280;53703;50.326;19.122;2023-02-28T03:54:11;99890.84;;;17.32;38.81
66801;BME280;53703;50.326;19.122;2023-02-28T03:57:15;99893.44;;;17.29;38.96
66801;BME280;53703;50.326;19.122;2023-02-28T04:00:18;99894.31;;;17.30;38.83
66801;BME280;53703;50.326;19.122;2023-02-28T04:03:15;99895.33;;;17.27;38.82
66801;BME280;53703;50.326;19.122;2023-02-28T04:06:30;99891.52;;;17.25;38.85
66801;BME280;53703;50.326;19.122;2023-02-28T04:09:25;99892.04;;;17.26;39.07
66801;BME280;53703;50.326;19.122;2023-02-28T04:12:19;99898.80;;;17.29;38.83
66801;BME280;53703;50.326;19.122;2023-02-28T04:15:15;99900.19;;;17.26;38.76
66801;BME280;53703;50.326;19.122;2023-02-28T04:18:09;99900.31;;;17.26;38.76
66801;BME280;53703;50.326;19.122;2023-02-28T04:21:04;99901.84;;;17.26;38.80
66801;BME280;53703;50.326;19.122;2023-02-28T04:23:59;99903.21;;;17.22;38.88
66801;BME280;53703;50.326;19.122;2023-02-28T04:26:55;99904.58;;;17.23;38.84
66801;BME280;53703;50.326;19.122;2023-02-28T04:29:50;99906.88;;;17.22;38.82
66801;BME280;53703;50.326;19.122;2023-02-28T04:32:44;99909.98;;;17.21;38.83
66801;BME280;53703;50.326;19.122;2023-02-28T04:35:37;99915.86;;;17.22;38.82
66801;BME280;53703;50.326;19.122;2023-02-28T04:38:33;99911.58;;;17.23;38.88
66801;BME280;53703;50.326;19.122;2023-02-28T04:41:29;99915.40;;;17.30;38.94
66801;BME280;53703;50.326;19.122;2023-02-28T04:44:25;99921.04;;;17.20;38.98
66801;BME280;53703;50.326;19.122;2023-02-28T04:47:19;99922.48;;;17.22;39.11
66801;BME280;53703;50.326;19.122;2023-02-28T04:50:14;99923.17;;;17.23;38.95
66801;BME280;53703;50.326;19.122;2023-02-28T04:53:08;99926.75;;;17.19;38.94
66801;BME280;53703;50.326;19.122;2023-02-28T04:56:02;99923.73;;;17.20;38.82
66801;BME280;53703;50.326;19.122;2023-02-28T04:58:56;99926.48;;;17.21;38.89
66801;BME280;53703;50.326;19.122;2023-02-28T05:01:50;99930.63;;;17.18;38.75
66801;BME280;53703;50.326;19.122;2023-02-28T05:04:44;99927.64;;;17.18;38.85
66801;BME280;53703;50.326;19.122;2023-02-28T05:07:38;99930.62;;;17.16;38.94
66801;BME280;53703;50.326;19.122;2023-02-28T05:10:34;99928.09;;;17.18;38.70
66801;BME280;53703;50.326;19.122;2023-02-28T05:13:28;99926.66;;;17.20;38.73
66801;BME280;53703;50.326;19.122;2023-02-28T05:16:22;99930.69;;;17.17;38.67
66801;BME280;53703;50.326;19.122;2023-02-28T05:19:16;99930.63;;;17.18;38.63
66801;BME280;53703;50.326;19.122;2023-02-28T05:22:17;99933.89;;;17.15;38.73
66801;BME280;53703;50.326;19.122;2023-02-28T05:25:12;99936.95;;;17.12;38.72
66801;BME280;53703;50.326;19.122;2023-02-28T05:28:08;99939.14;;;17.15;38.78
66801;BME280;53703;50.326;19.122;2023-02-28T05:31:02;99942.41;;;17.10;38.74
66801;BME280;53703;50.326;19.122;2023-02-28T05:33:39;99942.98;;;17.11;38.68
66801;BME280;53703;50.326;19.122;2023-02-28T05:36:33;99940.94;;;17.11;38.55
66801;BME280;53703;50.326;19.122;2023-02-28T05:39:27;99944.15;;;17.05;38.66
66801;BME280;53703;50.326;19.122;2023-02-28T05:42:21;99951.02;;;17.01;38.54
66801;BME280;53703;50.326;19.122;2023-02-28T05:45:15;99951.17;;;17.02;38.66
66801;BME280;53703;50.326;19.122;2023-02-28T05:48:11;99952.61;;;16.98;38.84
66801;BME280;53703;50.326;19.122;2023-02-28T05:51:06;99951.70;;;16.95;38.86
66801;BME280;53703;50.326;19.122;2023-02-28T05:54:03;99954.00;;;16.98;38.30
66801;BME280;53703;50.326;19.122;2023-02-28T05:56:57;99959.69;;;17.19;38.13
66801;BME280;53703;50.326;19.122;2023-02-28T05:59:50;99963.05;;;17.26;37.59
66801;BME280;53703;50.326;19.122;2023-02-28T06:02:44;99965.66;;;17.28;38.36
66801;BME280;53703;50.326;19.122;2023-02-28T06:05:38;99973.45;;;17.30;40.02
66801;BME280;53703;50.326;19.122;2023-02-28T06:08:32;99977.34;;;17.11;40.21
66801;BME280;53703;50.326;19.122;2023-02-28T06:11:26;99975.16;;;17.08;40.09
66801;BME280;53703;50.326;19.122;2023-02-28T06:14:22;99979.69;;;17.08;40.73
66801;BME280;53703;50.326;19.122;2023-02-28T06:17:15;99981.66;;;16.87;40.59
66801;BME280;53703;50.326;19.122;2023-02-28T06:20:12;99979.67;;;16.97;41.19
66801;BME280;53703;50.326;19.122;2023-02-28T06:23:06;99984.75;;;17.06;41.17
66801;BME280;53703;50.326;19.122;2023-02-28T06:26:00;99989.60;;;16.99;41.08
66801;BME280;53703;50.326;19.122;2023-02-28T06:28:54;99990.27;;;16.99;41.09
66801;BME280;53703;50.326;19.122;2023-02-28T06:31:49;99989.90;;;17.12;40.71
66801;BME280;53703;50.326;19.122;2023-02-28T06:34:42;99994.23;;;16.99;40.36
66801;BME280;53703;50.326;19.122;2023-02-28T06:37:36;99996.04;;;16.97;40.45
66801;BME280;53703;50.326;19.122;2023-02-28T06:40:23;99998.95;;;16.97;40.20
66801;BME280;53703;50.326;19.122;2023-02-28T06:43:17;99999.59;;;16.94;40.43
66801;BME280;53703;50.326;19.122;2023-02-28T06:46:14;100002.17;;;17.00;40.28
66801;BME280;53703;50.326;19.122;2023-02-28T06:49:08;99996.69;;;17.22;40.36
66801;BME280;53703;50.326;19.122;2023-02-28T06:51:47;99997.91;;;17.22;39.92
66801;BME280;53703;50.326;19.122;2023-02-28T06:54:42;99995.96;;;17.05;39.90
66801;BME280;53703;50.326;19.122;2023-02-28T06:57:37;99998.10;;;17.08;39.61
66801;BME280;53703;50.326;19.122;2023-02-28T07:00:30;99999.59;;;17.13;39.70
66801;BME280;53703;50.326;19.122;2023-02-28T07:03:25;100001.73;;;17.06;39.82
66801;BME280;53703;50.326;19.122;2023-02-28T07:09:21;100009.22;;;17.12;40.16
66801;BME280;53703;50.326;19.122;2023-02-28T07:12:15;100007.58;;;16.97;39.66
66801;BME280;53703;50.326;19.122;2023-02-28T07:15:11;100010.59;;;17.04;39.62
66801;BME280;53703;50.326;19.122;2023-02-28T07:18:05;100009.18;;;16.89;39.48
66801;BME280;53703;50.326;19.122;2023-02-28T07:21:01;100007.94;;;16.88;39.46
66801;BME280;53703;50.326;19.122;2023-02-28T07:23:55;100009.95;;;16.90;39.15
66801;BME280;53703;50.326;19.122;2023-02-28T07:26:49;100011.21;;;16.94;39.18
66801;BME280;53703;50.326;19.122;2023-02-28T07:29:42;100011.08;;;16.96;38.94
66801;BME280;53703;50.326;19.122;2023-02-28T07:32:36;100008.29;;;16.95;38.86
66801;BME280;53703;50.326;19.122;2023-02-28T07:35:30;100012.95;;;16.97;38.73
66801;BME280;53703;50.326;19.122;2023-02-28T07:38:24;100014.59;;;17.00;38.88
66801;BME280;53703;50.326;19.122;2023-02-28T07:41:20;100015.32;;;17.13;39.09
66801;BME280;53703;50.326;19.122;2023-02-28T07:44:17;100013.73;;;17.32;38.66
66801;BME280;53703;50.326;19.122;2023-02-28T07:47:11;100010.80;;;17.30;39.06
66801;BME280;53703;50.326;19.122;2023-02-28T07:50:06;100012.02;;;17.26;40.55
66801;BME280;53703;50.326;19.122;2023-02-28T07:53:00;100012.00;;;17.31;42.88
66801;BME280;53703;50.326;19.122;2023-02-28T07:55:57;100013.93;;;16.91;42.75
66801;BME280;53703;50.326;19.122;2023-02-28T07:58:51;100013.79;;;12.80;38.53
66801;BME280;53703;50.326;19.122;2023-02-28T08:01:45;100011.59;;;14.91;41.29
66801;BME280;53703;50.326;19.122;2023-02-28T08:04:39;100006.91;;;17.02;37.45
66801;BME280;53703;50.326;19.122;2023-02-28T08:07:16;100009.25;;;17.53;37.42
66801;BME280;53703;50.326;19.122;2023-02-28T08:10:12;100010.11;;;17.59;37.90
66801;BME280;53703;50.326;19.122;2023-02-28T08:12:51;100015.17;;;17.62;37.57
66801;BME280;53703;50.326;19.122;2023-02-28T08:15:45;100011.23;;;17.65;37.65
66801;BME280;53703;50.326;19.122;2023-02-28T08:18:28;100014.35;;;17.62;38.24
66801;BME280;53703;50.326;19.122;2023-02-28T08:21:22;100015.23;;;17.62;38.18
66801;BME280;53703;50.326;19.122;2023-02-28T08:24:16;100012.86;;;17.66;38.76
66801;BME280;53703;50.326;19.122;2023-02-28T08:26:54;100007.81;;;17.78;38.01
66801;BME280;53703;50.326;19.122;2023-02-28T08:29:48;100009.20;;;17.76;38.87
66801;BME280;53703;50.326;19.122;2023-02-28T08:32:42;100006.44;;;17.83;38.12
66801;BME280;53703;50.326;19.122;2023-02-28T08:35:38;100001.63;;;17.88;38.29
66801;BME280;53703;50.326;19.122;2023-02-28T08:38:32;100009.04;;;18.12;38.67
66801;BME280;53703;50.326;19.122;2023-02-28T08:41:26;100007.37;;;16.48;36.89
66801;BME280;53703;50.326;19.122;2023-02-28T08:44:21;100006.48;;;17.65;37.36
66801;BME280;53703;50.326;19.122;2023-02-28T08:47:15;100010.18;;;17.99;37.08
66801;BME280;53703;50.326;19.122;2023-02-28T08:50:11;100014.55;;;18.02;36.96
66801;BME280;53703;50.326;19.122;2023-02-28T08:53:07;100014.91;;;18.06;36.93
66801;BME280;53703;50.326;19.122;2023-02-28T08:56:04;100012.34;;;18.07;36.97
66801;BME280;53703;50.326;19.122;2023-02-28T08:58:57;100013.42;;;18.11;36.94
66801;BME280;53703;50.326;19.122;2023-02-28T09:01:51;100008.39;;;18.04;37.20
66801;BME280;53703;50.326;19.122;2023-02-28T09:04:45;100008.88;;;18.07;37.28
66801;BME280;53703;50.326;19.122;2023-02-28T09:07:39;100010.11;;;18.06;37.28
66801;BME280;53703;50.326;19.122;2023-02-28T09:10:33;100016.44;;;18.15;37.23
66801;BME280;53703;50.326;19.122;2023-02-28T09:13:28;100015.02;;;18.07;37.34
66801;BME280;53703;50.326;19.122;2023-02-28T09:16:22;100018.77;;;18.04;37.50
66801;BME280;53703;50.326;19.122;2023-02-28T09:19:16;100015.11;;;18.05;37.65
66801;BME280;53703;50.326;19.122;2023-02-28T09:22:10;100020.70;;;18.10;37.32
66801;BME280;53703;50.326;19.122;2023-02-28T09:25:04;100020.38;;;18.11;37.47
66801;BME280;53703;50.326;19.122;2023-02-28T09:27:58;100019.39;;;18.09;37.41
66801;BME280;53703;50.326;19.122;2023-02-28T09:30:54;100022.40;;;18.19;37.74
66801;BME280;53703;50.326;19.122;2023-02-28T09:33:48;100018.20;;;18.17;37.44
66801;BME280;53703;50.326;19.122;2023-02-28T09:36:42;100020.13;;;18.29;37.43
66801;BME280;53703;50.326;19.122;2023-02-28T09:39:38;100022.27;;;18.17;37.35
66801;BME280;53703;50.326;19.122;2023-02-28T09:42:34;100019.23;;;18.15;37.44
66801;BME280;53703;50.326;19.122;2023-02-28T09:45:33;100027.45;;;18.15;37.41
66801;BME280;53703;50.326;19.122;2023-02-28T09:48:33;100028.08;;;18.15;37.40
66801;BME280;53703;50.326;19.122;2023-02-28T09:51:43;100026.98;;;18.13;37.50
66801;BME280;53703;50.326;19.122;2023-02-28T09:54:41;100025.46;;;18.12;37.53
66801;BME280;53703;50.326;19.122;2023-02-28T09:57:38;100033.13;;;18.12;37.56
66801;BME280;53703;50.326;19.122;2023-02-28T10:00:39;100029.58;;;18.23;37.41
66801;BME280;53703;50.326;19.122;2023-02-28T10:03:37;100033.03;;;18.13;37.57
66801;BME280;53703;50.326;19.122;2023-02-28T10:06:38;100030.82;;;18.12;37.49
66801;BME280;53703;50.326;19.122;2023-02-28T10:09:35;100035.63;;;18.12;37.48
66801;BME280;53703;50.326;19.122;2023-02-28T10:12:31;100037.67;;;18.10;37.58
66801;BME280;53703;50.326;19.122;2023-02-28T10:15:29;100032.92;;;18.14;37.43
66801;BME280;53703;50.326;19.122;2023-02-28T10:18:13;100029.38;;;18.16;37.42
66801;BME280;53703;50.326;19.122;2023-02-28T10:21:19;100023.44;;;18.17;37.53
66801;BME280;53703;50.326;19.122;2023-02-28T10:24:25;100026.13;;;18.16;37.57
66801;BME280;53703;50.326;19.122;2023-02-28T10:30:23;100022.71;;;18.11;38.37
66801;BME280;53703;50.326;19.122;2023-02-28T10:33:24;100016.92;;;18.21;38.00
66801;BME280;53703;50.326;19.122;2023-02-28T10:36:20;100013.38;;;18.21;37.38
66801;BME280;53703;50.326;19.122;2023-02-28T10:39:43;100006.20;;;18.23;37.14
66801;BME280;53703;50.326;19.122;2023-02-28T10:42:38;100008.27;;;18.22;37.34
66801;BME280;53703;50.326;19.122;2023-02-28T10:45:33;100009.17;;;18.25;37.01
66801;BME280;53703;50.326;19.122;2023-02-28T10:48:38;100001.41;;;18.35;37.12
66801;BME280;53703;50.326;19.122;2023-02-28T10:51:42;99998.55;;;18.31;37.08
66801;BME280;53703;50.326;19.122;2023-02-28T10:54:37;99993.64;;;18.42;36.99
66801;BME280;53703;50.326;19.122;2023-02-28T10:57:31;99994.58;;;18.44;36.88
66801;BME280;53703;50.326;19.122;2023-02-28T11:00:46;99992.52;;;18.40;36.77
66801;BME280;53703;50.326;19.122;2023-02-28T11:03:40;99995.33;;;18.27;37.85
66801;BME280;53703;50.326;19.122;2023-02-28T11:06:36;99992.59;;;18.34;37.27
66801;BME280;53703;50.326;19.122;2023-02-28T11:09:34;99988.32;;;18.39;37.08
66801;BME280;53703;50.326;19.122;2023-02-28T11:12:31;99985.37;;;18.43;37.01
66801;BME280;53703;50.326;19.122;2023-02-28T11:15:39;99977.91;;;18.41;37.03
66801;BME280;53703;50.326;19.122;2023-02-28T11:18:38;99975.37;;;18.37;37.18
66801;BME280;53703;50.326;19.122;2023-02-28T11:21:37;99978.73;;;18.61;36.89
66801;BME280;53703;50.326;19.122;2023-02-28T11:24:35;99974.16;;;18.66;37.12
66801;BME280;53703;50.326;19.122;2023-02-28T11:27:51;99968.20;;;18.42;36.91
66801;BME280;53703;50.326;19.122;2023-02-28T11:30:45;99965.67;;;18.32;37.16
66801;BME280;53703;50.326;19.122;2023-02-28T11:33:47;99959.39;;;18.33;37.10
66801;BME280;53703;50.326;19.122;2023-02-28T11:36:43;99957.60;;;18.32;37.20
66801;BME280;53703;50.326;19.122;2023-02-28T11:39:38;99955.43;;;18.34;37.22
66801;BME280;53703;50.326;19.122;2023-02-28T11:42:51;99953.93;;;18.32;37.18
66801;BME280;53703;50.326;19.122;2023-02-28T11:45:59;99946.52;;;18.30;37.11
66801;BME280;53703;50.326;19.122;2023-02-28T11:49:06;99945.95;;;18.27;37.26
66801;BME280;53703;50.326;19.122;2023-02-28T11:52:19;99938.81;;;18.25;37.15
66801;BME280;53703;50.326;19.122;2023-02-28T11:55:23;99939.36;;;18.25;37.21
66801;BME280;53703;50.326;19.122;2023-02-28T11:58:47;99942.10;;;18.23;37.26
66801;BME280;53703;50.326;19.122;2023-02-28T12:02:00;99937.57;;;18.19;37.18
66801;BME280;53703;50.326;19.122;2023-02-28T12:05:14;99933.80;;;18.44;36.98
66801;BME280;53703;50.326;19.122;2023-02-28T12:08:26;99936.77;;;18.24;37.04
66801;BME280;53703;50.326;19.122;2023-02-28T12:11:37;99938.49;;;18.24;37.13
66801;BME280;53703;50.326;19.122;2023-02-28T12:15:05;99933.17;;;18.28;37.22
66801;BME280;53703;50.326;19.122;2023-02-28T12:18:20;99928.08;;;18.59;36.95
66801;BME280;53703;50.326;19.122;2023-02-28T12:21:11;99924.78;;;18.49;37.04
66801;BME280;53703;50.326;19.122;2023-02-28T12:24:31;99919.60;;;18.35;37.11
66801;BME280;53703;50.326;19.122;2023-02-28T12:27:36;99923.36;;;18.42;37.64
66801;BME280;53703;50.326;19.122;2023-02-28T12:30:33;99924.82;;;18.44;37.71
66801;BME280;53703;50.326;19.122;2023-02-28T12:33:34;99923.48;;;18.32;37.62
66801;BME280;53703;50.326;19.122;2023-02-28T12:36:30;99922.48;;;18.21;37.15
66801;BME280;53703;50.326;19.122;2023-02-28T12:39:28;99922.30;;;18.11;37.99
66801;BME280;53703;50.326;19.122;2023-02-28T12:42:33;99917.31;;;18.22;37.48
66801;BME280;53703;50.326;19.122;2023-02-28T12:45:40;99912.35;;;18.12;37.60
66801;BME280;53703;50.326;19.122;2023-02-28T12:48:40;99915.08;;;18.10;37.71
66801;BME280;53703;50.326;19.122;2023-02-28T12:51:40;99908.09;;;18.05;37.68
66801;BME280;53703;50.326;19.122;2023-02-28T12:54:38;99903.52;;;18.03;37.77
66801;BME280;53703;50.326;19.122;2023-02-28T12:57:40;99901.69;;;18.05;37.94
66801;BME280;53703;50.326;19.122;2023-02-28T13:00:40;99896.67;;;17.98;37.54
66801;BME280;53703;50.326;19.122;2023-02-28T13:04:08;99898.30;;;17.95;37.90
66801;BME280;53703;50.326;19.122;2023-02-28T13:07:31;99902.04;;;18.00;37.47
66801;BME280;53703;50.326;19.122;2023-02-28T13:10:41;99900.04;;;17.94;37.90
66801;BME280;53703;50.326;19.122;2023-02-28T13:13:36;99901.47;;;17.95;38.08
66801;BME280;53703;50.326;19.122;2023-02-28T13:16:57;99897.20;;;17.83;38.10
66801;BME280;53703;50.326;19.122;2023-02-28T13:20:01;99897.27;;;17.86;37.83
66801;BME280;53703;50.326;19.122;2023-02-28T13:22:56;99898.71;;;17.77;38.08
66801;BME280;53703;50.326;19.122;2023-02-28T13:25:54;99896.27;;;17.85;38.09
66801;BME280;53703;50.326;19.122;2023-02-28T13:29:24;99892.17;;;17.74;38.07
66801;BME280;53703;50.326;19.122;2023-02-28T13:32:36;99891.89;;;17.69;38.24
66801;BME280;53703;50.326;19.122;2023-02-28T13:35:46;99887.11;;;17.68;38.24
66801;BME280;53703;50.326;19.122;2023-02-28T13:38:42;99888.51;;;17.61;38.07
66801;BME280;53703;50.326;19.122;2023-02-28T13:41:50;99884.39;;;17.56;38.27
66801;BME280;53703;50.326;19.122;2023-02-28T13:45:21;99883.66;;;17.53;38.22
66801;BME280;53703;50.326;19.122;2023-02-28T13:48:00;99885.29;;;17.55;37.95
66801;BME280;53703;50.326;19.122;2023-02-28T13:51:39;99883.66;;;17.54;37.98
66801;BME280;53703;50.326;19.122;2023-02-28T13:54:44;99877.14;;;17.49;37.86
66801;BME280;53703;50.326;19.122;2023-02-28T13:57:58;99876.96;;;17.57;37.97
66801;BME280;53703;50.326;19.122;2023-02-28T14:01:16;99878.54;;;17.08;37.65
66801;BME280;53703;50.326;19.122;2023-02-28T14:04:48;99876.47;;;16.92;34.82
66801;BME280;53703;50.326;19.122;2023-02-28T14:07:47;99877.66;;;16.76;33.59
66801;BME280;53703;50.326;19.122;2023-02-28T14:10:46;99871.11;;;14.34;32.22
66801;BME280;53703;50.326;19.122;2023-02-28T14:13:45;99867.55;;;15.89;34.56
66801;BME280;53703;50.326;19.122;2023-02-28T14:16:46;99865.67;;;16.94;35.86
66801;BME280;53703;50.326;19.122;2023-02-28T14:19:41;99866.66;;;17.09;36.71
66801;BME280;53703;50.326;19.122;2023-02-28T14:22:55;99860.81;;;16.99;38.35
66801;BME280;53703;50.326;19.122;2023-02-28T14:26:03;99860.13;;;16.96;38.45
66801;BME280;53703;50.326;19.122;2023-02-28T14:29:26;99859.19;;;17.01;37.80
66801;BME280;53703;50.326;19.122;2023-02-28T14:32:25;99857.62;;;17.14;37.48
66801;BME280;53703;50.326;19.122;2023-02-28T14:35:22;99852.94;;;17.14;37.25
66801;BME280;53703;50.326;19.122;2023-02-28T14:38:25;99852.83;;;16.96;36.62
66801;BME280;53703;50.326;19.122;2023-02-28T14:41:30;99847.94;;;16.93;36.86
66801;BME280;53703;50.326;19.122;2023-02-28T14:44:29;99847.48;;;17.06;36.95
66801;BME280;53703;50.326;19.122;2023-02-28T14:47:27;99848.04;;;17.09;35.43
66801;BME280;53703;50.326;19.122;2023-02-28T14:50:26;99847.30;;;17.10;35.45
66801;BME280;53703;50.326;19.122;2023-02-28T14:53:25;99842.74;;;17.11;35.53
66801;BME280;53703;50.326;19.122;2023-02-28T14:56:26;99842.70;;;17.08;37.46
66801;BME280;53703;50.326;19.122;2023-02-28T14:59:29;99843.64;;;17.01;41.58
66801;BME280;53703;50.326;19.122;2023-02-28T15:02:30;99844.77;;;17.01;37.98
66801;BME280;53703;50.326;19.122;2023-02-28T15:05:29;99842.90;;;16.99;37.61
66801;BME280;53703;50.326;19.122;2023-02-28T15:08:16;99842.33;;;16.89;36.18
66801;BME280;53703;50.326;19.122;2023-02-28T15:11:16;99843.00;;;16.88;37.12
66801;BME280;53703;50.326;19.122;2023-02-28T15:14:19;99847.27;;;16.90;36.79
66801;BME280;53703;50.326;19.122;2023-02-28T15:17:23;99848.57;;;16.79;35.78
66801;BME280;53703;50.326;19.122;2023-02-28T15:20:19;99842.56;;;16.81;37.04
66801;BME280;53703;50.326;19.122;2023-02-28T15:23:14;99845.33;;;16.96;38.02
66801;BME280;53703;50.326;19.122;2023-02-28T15:26:13;99845.48;;;16.93;36.69
66801;BME280;53703;50.326;19.122;2023-02-28T15:29:17;99847.61;;;16.89;36.68
66801;BME280;53703;50.326;19.122;2023-02-28T15:32:32;99847.61;;;16.86;36.18
66801;BME280;53703;50.326;19.122;2023-02-28T15:35:32;99844.52;;;16.84;35.91
66801;BME280;53703;50.326;19.122;2023-02-28T15:38:28;99848.48;;;16.82;35.75
66801;BME280;53703;50.326;19.122;2023-02-28T15:41:31;99849.61;;;16.81;35.57